This is the latest recevied weather packets stored in our database for station/object OE3FJB-25. If no packets are shown the sender has not sent any weather packets the latest 10 day(s).
| Time | Temp. | Humidity | Pressure | Rain* | Wind** | Luminosity | Snow |
|---|---|---|---|---|---|---|---|
| 1777283114 | 14.44° C | 41% | 1024.7 hPa | - | - | - | - |
| 1777282516 | 14.44° C | 41% | 1024.7 hPa | - | - | - | - |
| 1777281917 | 14.44° C | 43% | 1024.8 hPa | - | - | - | - |
| 1777281318 | 15° C | 42% | 1024.9 hPa | - | - | - | - |
| 1777280719 | 15° C | 45% | 1024.9 hPa | - | - | - | - |
| 1777280121 | 13.33° C | 56% | 1025 hPa | - | - | - | - |
| 1777279522 | 12.22° C | 61% | 1025.1 hPa | - | - | - | - |
| 1777278923 | 12.22° C | 68% | 1025.1 hPa | - | - | - | - |
| 1777278325 | 11.11° C | 79% | 1025 hPa | - | - | - | - |
| 1777277726 | 10.56° C | 82% | 1025 hPa | - | - | - | - |
| 1777277127 | 10° C | 89% | 1024.9 hPa | - | - | - | - |
| 1777276529 | 10° C | 89% | 1024.8 hPa | - | - | - | - |
| 1777275930 | 10° C | 88% | 1024.8 hPa | - | - | - | - |
| 1777275331 | 11.11° C | 78% | 1024.8 hPa | - | - | - | - |
| 1777274733 | 11.11° C | 74% | 1024.8 hPa | - | - | - | - |
| 1777274134 | 11.11° C | 72% | 1024.7 hPa | - | - | - | - |
| 1777273535 | 10.56° C | 77% | 1024.7 hPa | - | - | - | - |
| 1777272937 | 10° C | 82% | 1024.7 hPa | - | - | - | - |
| 1777272338 | 10° C | 84% | 1024.7 hPa | - | - | - | - |
| 1777271739 | 9.44° C | 95% | 1024.7 hPa | - | - | - | - |
| 1777271140 | 7.78° C | 99% | 1024.7 hPa | - | - | - | - |
| 1777270542 | 7.22° C | 99% | 1024.7 hPa | - | - | - | - |
| 1777269943 | 6.11° C | 99% | 1024.6 hPa | - | - | - | - |
| 1777269344 | 5.56° C | 99% | 1024.6 hPa | - | - | - | - |
| 1777268746 | 5.56° C | 99% | 1024.6 hPa | - | - | - | - |
* Rain since midnight (hover to see other rain measurements)
** Current wind speed in m/s (hover to see current wind gust speed)